Time;durP1;ratioP1;P1;durP2;ratioP2;P2;SDS_P1;SDS_P2;PMS_P1;PMS_P2;Temp;Humidity;BMP_temperature;BMP_pressure;BME280_temperature;BME280_humidity;BME280_pressure;Samples;Min_cycle;Max_cycle;Signal;HPM_P1;HPM_P2
2022/04/13 00:00:41;;;;;;;9.88;5.45;;;9.00;83.20;;;;;;5117377;27;20206;-70
2022/04/13 00:03:06;;;;;;;10.60;6.28;;;8.90;83.60;;;;;;5117150;27;20171;-70
2022/04/13 00:05:32;;;;;;;8.83;5.30;;;8.80;83.60;;;;;;5113462;28;20587;-70
2022/04/13 00:08:05;;;;;;;7.90;5.57;;;8.70;83.90;;;;;;5130888;27;20176;-70
2022/04/13 00:10:36;;;;;;;8.70;5.68;;;8.70;84.20;;;;;;5130820;27;20474;-70
2022/04/13 00:13:03;;;;;;;11.02;4.95;;;8.60;84.60;;;;;;5130479;27;20640;-70
2022/04/13 00:15:30;;;;;;;9.48;5.97;;;8.50;84.90;;;;;;5130407;27;20561;-70
2022/04/13 00:18:07;;;;;;;7.22;6.07;;;8.40;85.00;;;;;;5130576;27;20176;-70
2022/04/13 00:20:34;;;;;;;10.50;6.43;;;8.40;85.00;;;;;;5130662;27;20203;-70
2022/04/13 00:23:00;;;;;;;9.30;6.03;;;8.30;85.40;;;;;;5130279;27;20647;-70
2022/04/13 00:25:28;;;;;;;10.30;5.30;;;8.20;85.10;;;;;;5130782;27;20226;-70
2022/04/13 00:27:57;;;;;;;11.32;6.85;;;8.20;85.10;;;;;;5130248;27;20171;-70
2022/04/13 00:30:22;;;;;;;10.43;6.38;;;8.10;85.40;;;;;;5113360;28;20671;-70
2022/04/13 00:32:50;;;;;;;10.00;7.17;;;8.10;85.70;;;;;;5130502;27;20231;-70
2022/04/13 00:35:18;;;;;;;9.45;6.75;;;8.10;86.00;;;;;;5130027;27;20286;-70
2022/04/13 00:37:44;;;;;;;12.75;7.97;;;8.10;86.30;;;;;;5129500;27;20178;-70
2022/04/13 00:40:11;;;;;;;12.17;7.47;;;8.00;86.20;;;;;;5130220;27;20290;-70
2022/04/13 00:42:39;;;;;;;14.95;8.07;;;8.00;86.30;;;;;;5130077;27;20976;-70
2022/04/13 00:45:06;;;;;;;12.20;7.90;;;8.00;86.60;;;;;;5130097;27;20306;-70
2022/04/13 00:47:34;;;;;;;12.68;8.30;;;8.00;86.80;;;;;;5130169;27;20168;-70
2022/04/13 00:49:59;;;;;;;10.77;7.85;;;7.90;87.00;;;;;;5130306;27;20200;-70
2022/04/13 00:52:31;;;;;;;12.63;7.57;;;7.90;87.10;;;;;;5130214;27;20176;-70
2022/04/13 00:55:04;;;;;;;9.85;6.82;;;7.80;87.30;;;;;;5129999;27;20422;-70
2022/04/13 00:57:33;;;;;;;10.57;5.82;;;7.80;88.20;;;;;;5130129;28;20191;-70
2022/04/13 01:00:01;;;;;;;11.27;6.40;;;7.70;87.20;;;;;;5130021;28;20214;-70
2022/04/13 01:02:38;;;;;;;12.45;7.80;;;7.70;87.40;;;;;;5130182;28;20167;-70
2022/04/13 01:05:08;;;;;;;10.02;6.50;;;7.60;87.70;;;;;;5130015;28;20214;-70
2022/04/13 01:07:35;;;;;;;14.45;6.60;;;7.60;88.00;;;;;;5116347;28;20175;-70
2022/04/13 01:10:07;;;;;;;10.18;6.80;;;7.50;88.10;;;;;;5116146;28;20209;-70
2022/04/13 01:12:39;;;;;;;7.90;5.82;;;7.50;88.20;;;;;;5116554;28;20628;-70
2022/04/13 01:15:06;;;;;;;12.80;6.30;;;7.40;88.90;;;;;;5116138;28;20199;-70
2022/04/13 01:17:33;;;;;;;11.30;6.40;;;7.30;88.30;;;;;;5133589;28;20171;-70
2022/04/13 01:20:05;;;;;;;8.13;4.78;;;7.30;88.80;;;;;;5115913;28;20277;-71
2022/04/13 01:22:35;;;;;;;10.63;6.00;;;7.20;88.90;;;;;;5116147;28;20182;-70
2022/04/13 01:25:01;;;;;;;10.68;6.22;;;7.20;89.10;;;;;;5116015;28;20695;-70
2022/04/13 01:27:27;;;;;;;10.05;5.78;;;7.10;89.40;;;;;;5133289;28;20651;-70
2022/04/13 01:29:54;;;;;;;13.67;6.10;;;7.10;89.40;;;;;;5116149;28;20199;-70
2022/04/13 01:32:21;;;;;;;7.30;4.95;;;7.00;89.70;;;;;;5116120;28;20415;-70
2022/04/13 01:34:53;;;;;;;11.18;6.78;;;7.00;89.60;;;;;;5115802;28;20218;-70
2022/04/13 01:37:20;;;;;;;7.90;5.70;;;6.90;89.40;;;;;;5116058;28;20555;-71
2022/04/13 01:39:51;;;;;;;11.02;6.13;;;6.90;89.10;;;;;;5115599;28;20286;-70
2022/04/13 01:42:19;;;;;;;13.57;6.90;;;6.90;89.50;;;;;;5116066;28;20179;-70
2022/04/13 01:44:47;;;;;;;10.65;6.03;;;6.80;89.50;;;;;;5116117;28;20218;-70
2022/04/13 01:47:19;;;;;;;10.40;5.47;;;6.80;89.40;;;;;;5116118;28;20171;-70
2022/04/13 01:49:46;;;;;;;11.27;7.05;;;6.80;90.00;;;;;;5117978;27;20199;-70
2022/04/13 01:52:13;;;;;;;11.10;6.75;;;6.70;90.00;;;;;;5136982;27;20634;-70
2022/04/13 01:54:39;;;;;;;14.27;7.03;;;6.70;90.20;;;;;;5119980;27;20604;-70
2022/04/13 01:57:06;;;;;;;15.38;6.38;;;6.60;90.10;;;;;;5119336;27;20243;-70
2022/04/13 01:59:36;;;;;;;15.15;6.45;;;6.60;90.20;;;;;;5119335;27;20203;-70
2022/04/13 02:02:05;;;;;;;13.07;6.65;;;6.60;90.40;;;;;;5119313;27;20194;-70
2022/04/13 02:04:34;;;;;;;10.35;6.00;;;6.50;90.40;;;;;;5119587;27;20568;-70
2022/04/13 02:07:00;;;;;;;10.48;5.72;;;6.40;90.50;;;;;;5115583;28;20231;-70
2022/04/13 02:09:29;;;;;;;10.27;6.05;;;6.40;90.70;;;;;;5133052;27;20203;-70
2022/04/13 02:12:03;;;;;;;13.25;7.38;;;6.40;90.60;;;;;;5132532;27;20617;-71
2022/04/13 02:14:30;;;;;;;9.38;6.50;;;6.40;90.70;;;;;;5133070;27;20720;-71
2022/04/13 02:16:56;;;;;;;9.07;5.60;;;6.30;90.70;;;;;;5115617;28;20208;-70
2022/04/13 02:19:32;;;;;;;8.23;5.60;;;6.30;90.90;;;;;;5133208;27;20555;-70
2022/04/13 02:22:00;;;;;;;11.38;6.20;;;6.20;91.00;;;;;;5117142;28;20560;-71
2022/04/13 02:24:34;;;;;;;7.97;5.82;;;6.20;91.10;;;;;;5116970;28;20199;-71
2022/04/13 02:27:05;;;;;;;11.13;5.95;;;6.20;91.00;;;;;;5132796;27;20205;-70
2022/04/13 02:29:31;;;;;;;9.40;6.10;;;6.20;91.20;;;;;;5115792;28;20216;-70
2022/04/13 02:32:01;;;;;;;8.52;6.50;;;6.20;91.20;;;;;;5132768;27;20200;-70
2022/04/13 02:34:28;;;;;;;7.85;5.90;;;6.10;91.20;;;;;;5132387;27;20230;-70
2022/04/13 02:36:55;;;;;;;10.73;6.15;;;6.10;91.40;;;;;;5132253;27;20672;-70
2022/04/13 02:39:29;;;;;;;11.40;6.75;;;6.10;91.40;;;;;;5132818;27;20215;-70
2022/04/13 02:41:56;;;;;;;9.98;6.57;;;6.00;91.70;;;;;;5132355;27;20172;-70
2022/04/13 02:44:22;;;;;;;9.43;7.03;;;6.00;91.50;;;;;;5132537;27;20694;-70
2022/04/13 02:46:55;;;;;;;14.75;8.10;;;6.00;91.60;;;;;;5132387;27;20236;-70
2022/04/13 02:49:26;;;;;;;9.00;6.00;;;6.00;91.80;;;;;;5132302;27;20211;-70
2022/04/13 02:51:56;;;;;;;10.82;6.03;;;5.90;91.80;;;;;;5116506;28;20639;-70
2022/04/13 02:54:32;;;;;;;13.07;7.60;;;5.90;91.90;;;;;;5133001;27;20207;-70
2022/04/13 02:56:59;;;;;;;13.25;7.18;;;5.80;92.10;;;;;;5115314;28;20288;-70
2022/04/13 02:59:31;;;;;;;8.90;6.38;;;5.80;92.50;;;;;;5132266;27;20204;-70
2022/04/13 03:02:04;;;;;;;12.82;6.82;;;5.80;92.40;;;;;;5131116;27;20179;-70
2022/04/13 03:04:34;;;;;;;12.57;7.28;;;5.80;92.20;;;;;;5132135;27;20672;-70
2022/04/13 03:07:03;;;;;;;10.57;6.07;;;5.70;92.30;;;;;;5131660;27;20580;-71
2022/04/13 03:09:34;;;;;;;12.52;7.22;;;5.70;92.30;;;;;;5131807;27;20207;-70
2022/04/13 03:12:00;;;;;;;11.50;6.93;;;5.70;92.40;;;;;;5132081;27;20179;-70
2022/04/13 03:14:27;;;;;;;17.45;7.88;;;5.70;92.50;;;;;;5131984;27;20215;-70
2022/04/13 03:16:53;;;;;;;14.57;8.18;;;5.60;92.60;;;;;;5131423;27;20256;-69
2022/04/13 03:19:19;;;;;;;13.20;8.60;;;5.60;92.70;;;;;;5131789;27;20196;-70
2022/04/13 03:21:50;;;;;;;9.15;6.65;;;5.60;92.80;;;;;;5132057;27;20378;-70
2022/04/13 03:24:21;;;;;;;11.27;7.75;;;5.60;93.00;;;;;;5131813;27;20196;-70
2022/04/13 03:26:48;;;;;;;13.60;8.48;;;5.50;93.10;;;;;;5131821;27;20258;-70
2022/04/13 03:29:14;;;;;;;18.20;8.57;;;5.50;93.20;;;;;;5131345;27;20203;-69
2022/04/13 03:31:41;;;;;;;11.07;6.53;;;5.40;93.20;;;;;;5131819;27;20168;-70
2022/04/13 03:34:07;;;;;;;11.77;7.20;;;5.40;93.30;;;;;;5131317;27;20184;-70
2022/04/13 03:36:33;;;;;;;14.05;6.82;;;5.50;93.40;;;;;;5131351;27;20298;-69
2022/04/13 03:38:58;;;;;;;14.23;7.50;;;5.50;93.30;;;;;;5115328;28;20215;-70
2022/04/13 03:41:24;;;;;;;10.20;7.90;;;5.50;93.30;;;;;;5118418;27;20173;-69
2022/04/13 03:43:57;;;;;;;17.48;7.68;;;5.50;93.30;;;;;;5092462;28;20577;-70
2022/04/13 03:46:25;;;;;;;9.85;7.70;;;5.50;93.40;;;;;;5094172;28;20184;-71
2022/04/13 03:48:51;;;;;;;17.23;7.10;;;5.50;93.50;;;;;;5093509;28;20184;-71
2022/04/13 03:51:17;;;;;;;12.20;7.20;;;5.50;93.60;;;;;;5092613;28;20172;-72
2022/04/13 03:53:44;;;;;;;9.80;6.47;;;5.50;93.60;;;;;;5091973;28;20176;-72
2022/04/13 03:56:11;;;;;;;12.63;8.10;;;5.50;93.60;;;;;;5074908;28;20220;-71
2022/04/13 03:58:42;;;;;;;14.70;7.40;;;5.50;93.70;;;;;;5091192;28;20226;-71
2022/04/13 04:01:09;;;;;;;15.23;7.28;;;5.50;93.70;;;;;;5074630;28;20221;-71
2022/04/13 04:03:36;;;;;;;9.75;6.05;;;5.50;93.70;;;;;;5091282;28;20217;-71
2022/04/13 04:06:05;;;;;;;11.32;7.00;;;5.50;93.80;;;;;;5090641;28;20246;-71
2022/04/13 04:08:33;;;;;;;17.73;8.90;;;5.50;93.80;;;;;;5076210;28;20172;-71
2022/04/13 04:11:00;;;;;;;22.52;11.10;;;5.50;93.90;;;;;;5075976;28;20215;-71
2022/04/13 04:13:26;;;;;;;22.95;14.30;;;5.50;94.10;;;;;;5075815;28;20375;-71
2022/04/13 04:15:53;;;;;;;15.45;10.50;;;5.50;94.00;;;;;;5081758;28;20707;-71
2022/04/13 04:18:19;;;;;;;14.48;8.60;;;5.50;94.20;;;;;;5113798;28;20624;-71
2022/04/13 04:20:52;;;;;;;15.13;6.57;;;5.50;94.10;;;;;;5130510;27;20278;-71
2022/04/13 04:23:19;;;;;;;12.90;6.78;;;5.50;94.20;;;;;;5130902;27;20176;-71
2022/04/13 04:25:45;;;;;;;11.48;7.45;;;5.40;94.30;;;;;;5125100;27;20568;-71
2022/04/13 04:28:14;;;;;;;12.82;7.78;;;5.40;94.30;;;;;;5091522;28;20168;-71
2022/04/13 04:30:41;;;;;;;9.93;6.13;;;5.40;94.40;;;;;;5090574;28;20266;-71
2022/04/13 04:33:15;;;;;;;13.80;6.18;;;5.40;94.30;;;;;;5092025;28;20208;-71
2022/04/13 04:35:50;;;;;;;11.73;7.28;;;5.40;94.30;;;;;;5092021;28;20648;-71
2022/04/13 04:38:21;;;;;;;10.63;8.02;;;5.50;94.40;;;;;;5089132;28;20195;-71
2022/04/13 04:40:48;;;;;;;13.70;8.40;;;5.50;94.40;;;;;;5084764;28;20647;-71
2022/04/13 04:43:13;;;;;;;9.82;6.78;;;5.50;94.70;;;;;;5092676;28;20664;-71
2022/04/13 04:45:40;;;;;;;12.25;6.13;;;5.60;95.30;;;;;;5091930;28;20207;-70
2022/04/13 04:48:09;;;;;;;10.90;6.43;;;5.70;95.90;;;;;;5092357;28;20184;-71
2022/04/13 04:50:35;;;;;;;15.60;7.50;;;5.80;96.50;;;;;;5091430;28;20204;-71
2022/04/13 04:53:05;;;;;;;12.80;7.50;;;5.90;96.90;;;;;;5077747;28;20245;-71
2022/04/13 04:55:32;;;;;;;13.23;7.82;;;5.90;97.10;;;;;;5101330;28;20227;-71
2022/04/13 04:58:00;;;;;;;14.43;8.77;;;6.10;97.30;;;;;;5072877;28;20374;-71
2022/04/13 05:00:35;;;;;;;11.52;7.90;;;6.10;96.00;;;;;;5085480;28;20270;-71
2022/04/13 05:03:03;;;;;;;13.07;8.13;;;6.20;95.30;;;;;;5091397;28;20576;-71
2022/04/13 05:05:33;;;;;;;15.77;7.32;;;6.30;95.10;;;;;;5089281;28;20241;-71
2022/04/13 05:08:02;;;;;;;14.77;7.97;;;6.40;94.90;;;;;;5094660;28;20310;-71
2022/04/13 05:10:32;;;;;;;13.40;6.72;;;6.50;94.90;;;;;;5093473;28;20203;-71
2022/04/13 05:13:12;;;;;;;13.48;7.13;;;6.60;94.70;;;;;;5093554;28;20184;-71
2022/04/13 05:15:41;;;;;;;11.90;7.45;;;6.70;94.60;;;;;;5091858;28;20234;-71
2022/04/13 05:18:14;;;;;;;122.68;45.22;;;6.80;94.40;;;;;;5094289;28;20180;-71
2022/04/13 05:20:41;;;;;;;18.95;11.75;;;6.90;94.20;;;;;;5108229;28;20339;-71
2022/04/13 05:23:07;;;;;;;14.07;6.57;;;7.00;94.20;;;;;;5094838;28;20194;-71
2022/04/13 05:25:34;;;;;;;11.77;6.13;;;7.00;94.10;;;;;;5098091;28;20219;-71
2022/04/13 05:28:03;;;;;;;14.63;6.90;;;7.10;94.10;;;;;;5096977;28;20183;-71
2022/04/13 05:30:35;;;;;;;13.43;9.30;;;7.00;94.20;;;;;;5089261;28;20235;-71
2022/04/13 05:33:03;;;;;;;16.83;10.07;;;7.10;94.40;;;;;;5092312;28;20263;-71
2022/04/13 05:35:32;;;;;;;19.90;10.43;;;7.10;94.30;;;;;;5096061;28;20680;-71
2022/04/13 05:38:02;;;;;;;17.63;9.48;;;7.20;94.50;;;;;;5096389;28;20593;-71
2022/04/13 05:40:36;;;;;;;24.38;10.02;;;7.20;94.50;;;;;;5093694;28;20211;-71
2022/04/13 05:43:04;;;;;;;15.80;9.50;;;7.30;94.70;;;;;;5093900;28;20186;-71
2022/04/13 05:45:42;;;;;;;15.98;10.52;;;7.40;95.00;;;;;;5088840;28;20298;-71
2022/04/13 05:48:10;;;;;;;15.40;9.23;;;7.40;95.00;;;;;;5110365;28;20180;-72
2022/04/13 05:50:39;;;;;;;17.58;10.27;;;7.50;95.10;;;;;;5090939;28;20211;-71
2022/04/13 05:53:11;;;;;;;13.55;9.20;;;7.60;95.00;;;;;;5106697;28;20196;-72
2022/04/13 05:55:39;;;;;;;13.68;7.97;;;7.70;94.90;;;;;;5097379;28;20234;-71
2022/04/13 05:58:10;;;;;;;13.93;8.43;;;7.80;94.70;;;;;;5096952;28;20194;-71
2022/04/13 06:00:39;;;;;;;10.38;8.75;;;7.90;94.60;;;;;;5096330;28;20238;-71
2022/04/13 06:03:06;;;;;;;13.63;8.48;;;8.10;94.70;;;;;;5095574;28;20648;-72
2022/04/13 06:05:33;;;;;;;16.08;8.80;;;8.20;94.50;;;;;;5095059;28;20235;-71
2022/04/13 06:08:04;;;;;;;15.52;9.10;;;8.30;94.50;;;;;;5090206;28;20180;-72
2022/04/13 06:10:30;;;;;;;12.95;10.05;;;8.50;94.40;;;;;;5088055;28;20201;-72
2022/04/13 06:12:57;;;;;;;11.20;8.27;;;8.60;94.10;;;;;;5087509;28;20172;-72
2022/04/13 06:15:28;;;;;;;13.68;8.52;;;8.80;93.90;;;;;;5093650;27;20207;-72
2022/04/13 06:17:57;;;;;;;12.38;9.40;;;8.90;93.30;;;;;;5092784;28;20196;-72
2022/04/13 06:20:27;;;;;;;17.83;9.35;;;9.10;92.90;;;;;;5089013;28;20729;-72
2022/04/13 06:22:56;;;;;;;16.80;10.43;;;9.20;92.30;;;;;;5093582;28;20172;-72
2022/04/13 06:25:23;;;;;;;23.60;11.02;;;9.40;92.10;;;;;;5093623;28;20216;-72
2022/04/13 06:27:55;;;;;;;19.23;10.30;;;9.50;92.00;;;;;;5092592;28;20184;-72
2022/04/13 06:30:21;;;;;;;18.15;9.43;;;9.70;91.70;;;;;;5093987;28;20207;-72
2022/04/13 06:32:48;;;;;;;8.80;6.72;;;9.80;91.30;;;;;;5088157;28;20172;-72
2022/04/13 06:35:16;;;;;;;10.05;6.40;;;10.00;90.00;;;;;;5095428;28;20756;-73
2022/04/13 06:37:44;;;;;;;10.07;7.70;;;10.20;89.50;;;;;;5091853;28;20227;-72
2022/04/13 06:40:11;;;;;;;10.23;6.75;;;10.30;88.90;;;;;;5093601;28;20200;-72
2022/04/13 06:42:41;;;;;;;6.07;4.60;;;10.50;89.00;;;;;;5093536;28;20184;-72
2022/04/13 06:45:14;;;;;;;6.68;5.38;;;10.60;87.90;;;;;;5094771;28;20865;-72
2022/04/13 06:47:41;;;;;;;5.97;4.32;;;10.80;87.00;;;;;;5090073;28;20191;-72
2022/04/13 06:50:08;;;;;;;6.13;5.05;;;10.90;87.30;;;;;;5092093;28;20199;-72
2022/04/13 06:52:36;;;;;;;8.30;5.00;;;11.00;87.10;;;;;;5093746;28;20543;-72
2022/04/13 06:55:11;;;;;;;4.97;4.47;;;11.20;86.10;;;;;;5087321;28;20668;-72
2022/04/13 06:57:38;;;;;;;8.00;4.95;;;11.30;85.70;;;;;;5091786;28;20207;-72
2022/04/13 07:00:14;;;;;;;6.13;4.60;;;11.50;85.40;;;;;;5096843;28;20211;-72
2022/04/13 07:02:57;;;;;;;7.75;5.55;;;11.60;85.50;;;;;;5107238;27;20184;-72
2022/04/13 07:05:27;;;;;;;7.80;5.03;;;11.80;84.80;;;;;;5090111;28;20204;-72
2022/04/13 07:07:54;;;;;;;7.82;4.63;;;11.90;84.60;;;;;;5093461;28;20183;-72
2022/04/13 07:10:29;;;;;;;6.15;4.80;;;12.00;83.90;;;;;;5093372;28;20310;-72
2022/04/13 07:12:59;;;;;;;7.38;5.55;;;12.20;82.90;;;;;;5092937;28;20183;-72
2022/04/13 07:15:41;;;;;;;6.57;5.03;;;12.30;83.00;;;;;;5094167;27;20203;-72
2022/04/13 07:18:19;;;;;;;7.90;4.78;;;12.50;82.20;;;;;;5089940;28;20271;-72
2022/04/13 07:20:59;;;;;;;5.55;4.60;;;12.60;80.30;;;;;;5087463;28;20222;-72
2022/04/13 07:23:32;;;;;;;6.82;4.80;;;12.70;79.60;;;;;;5089372;28;20290;-72
2022/04/13 07:26:00;;;;;;;5.10;4.60;;;12.90;80.40;;;;;;5092164;28;20270;-72
2022/04/13 07:28:28;;;;;;;10.15;5.40;;;13.00;80.70;;;;;;5093301;28;20653;-72
2022/04/13 07:30:54;;;;;;;5.70;4.20;;;13.10;80.30;;;;;;5088965;28;20240;-72
2022/04/13 07:33:43;;;;;;;6.13;5.40;;;13.20;78.40;;;;;;5094173;28;20428;-72
2022/04/13 07:36:18;;;;;;;6.47;4.40;;;13.40;78.20;;;;;;5113832;22;20577;-73
2022/04/13 07:38:44;;;;;;;5.50;5.00;;;13.50;77.60;;;;;;5127581;27;20479;-72
2022/04/13 07:41:10;;;;;;;8.73;4.57;;;13.60;78.00;;;;;;5112109;27;20459;-71
2022/04/13 07:43:36;;;;;;;5.00;4.20;;;13.80;77.00;;;;;;5113998;27;20447;-72
2022/04/13 07:46:02;;;;;;;8.40;4.13;;;13.90;75.50;;;;;;5107916;27;20483;-72
2022/04/13 07:48:30;;;;;;;3.83;3.43;;;14.00;74.40;;;;;;5113954;27;20459;-72
2022/04/13 07:51:04;;;;;;;5.43;4.37;;;14.10;73.50;;;;;;5108663;27;21244;-73
2022/04/13 07:53:37;;;;;;;5.30;4.03;;;14.20;74.00;;;;;;5126399;27;20454;-72
2022/04/13 07:56:08;;;;;;;4.50;4.00;;;14.40;74.00;;;;;;5125610;27;20482;-72
2022/04/13 07:58:34;;;;;;;5.40;4.03;;;14.50;73.60;;;;;;5112893;27;20422;-72
2022/04/13 08:01:01;;;;;;;5.80;4.20;;;14.60;72.50;;;;;;5113895;27;20793;-70
2022/04/13 08:03:26;;;;;;;4.63;4.10;;;14.70;72.10;;;;;;5108903;27;20179;-70
2022/04/13 08:05:52;;;;;;;2.83;2.47;;;14.90;72.10;;;;;;5108168;27;20451;-72
2022/04/13 08:08:20;;;;;;;3.00;2.70;;;15.00;72.30;;;;;;5112938;27;20185;-72
2022/04/13 08:10:46;;;;;;;4.10;3.57;;;15.10;70.80;;;;;;5103708;28;20571;-72
2022/04/13 08:13:20;;;;;;;5.10;3.60;;;15.20;70.40;;;;;;5105239;28;20499;-72
2022/04/13 08:15:51;;;;;;;3.70;3.37;;;15.40;70.70;;;;;;5116138;27;20539;-73
2022/04/13 08:18:22;;;;;;;4.80;3.80;;;15.50;70.20;;;;;;5110618;27;20452;-72
2022/04/13 08:20:49;;;;;;;4.90;4.00;;;15.60;69.80;;;;;;5114252;27;20446;-72
2022/04/13 08:23:17;;;;;;;7.70;4.80;;;15.70;70.10;;;;;;5107530;28;20531;-72
2022/04/13 08:25:46;;;;;;;8.60;4.90;;;15.70;69.90;;;;;;5120887;27;21062;-72
2022/04/13 08:28:12;;;;;;;6.20;4.67;;;15.80;70.80;;;;;;5111445;27;20800;-72
2022/04/13 08:30:39;;;;;;;4.87;4.37;;;16.00;70.10;;;;;;5113877;27;20446;-71
2022/04/13 08:33:09;;;;;;;5.27;4.80;;;16.10;70.10;;;;;;5129067;27;20437;-71
2022/04/13 08:35:36;;;;;;;5.60;4.20;;;16.20;70.10;;;;;;5099084;28;20498;-71
2022/04/13 08:38:02;;;;;;;5.20;3.90;;;16.30;69.40;;;;;;5105881;27;20407;-71
2022/04/13 08:40:38;;;;;;;9.07;5.10;;;16.40;69.60;;;;;;5129567;27;20442;-71
2022/04/13 08:43:10;;;;;;;5.77;3.77;;;16.50;69.40;;;;;;5128430;27;20949;-71
2022/04/13 08:45:55;;;;;;;6.43;4.20;;;16.60;69.60;;;;;;5114209;28;20472;-71
2022/04/13 08:48:28;;;;;;;5.40;3.63;;;16.80;69.50;;;;;;5104688;27;20462;-71
2022/04/13 08:51:06;;;;;;;4.30;3.93;;;17.40;69.10;;;;;;5115705;27;20805;-71
2022/04/13 08:53:37;;;;;;;7.50;4.20;;;18.30;67.40;;;;;;5117020;27;20759;-71
2022/04/13 08:56:09;;;;;;;4.50;3.53;;;19.30;66.30;;;;;;5108334;28;20826;-71
2022/04/13 08:59:01;;;;;;;4.37;3.33;;;20.20;64.40;;;;;;5104515;27;20877;-72
2022/04/13 09:02:06;;;;;;;4.23;3.70;;;20.80;62.80;;;;;;5108123;28;20984;-71
2022/04/13 09:04:39;;;;;;;4.30;3.60;;;21.40;61.10;;;;;;5101765;28;20457;-71
2022/04/13 09:07:12;;;;;;;4.80;3.50;;;21.70;59.30;;;;;;5100180;28;21018;-71
2022/04/13 09:09:44;;;;;;;4.80;3.90;;;22.00;59.50;;;;;;5122616;28;20503;-71
2022/04/13 09:12:22;;;;;;;5.43;4.03;;;22.00;58.90;;;;;;5105363;28;20543;-71
2022/04/13 09:14:51;;;;;;;4.30;3.90;;;22.20;59.20;;;;;;5110631;28;20457;-72
2022/04/13 09:17:18;;;;;;;3.50;3.20;;;22.30;58.70;;;;;;5110276;28;20466;-72
2022/04/13 09:20:09;;;;;;;3.33;3.03;;;22.20;58.60;;;;;;5100213;28;20462;-72
2022/04/13 09:22:36;;;;;;;3.63;3.33;;;22.20;58.80;;;;;;5111045;28;20855;-71
2022/04/13 09:25:05;;;;;;;5.07;3.50;;;21.90;61.00;;;;;;5110108;28;20993;-71
2022/04/13 09:27:50;;;;;;;4.90;4.07;;;21.60;60.00;;;;;;5108007;28;20427;-71
2022/04/13 09:30:18;;;;;;;4.50;3.60;;;21.40;59.50;;;;;;5112543;28;20467;-72
2022/04/13 09:33:06;;;;;;;3.43;3.20;;;21.30;59.70;;;;;;5114216;28;20434;-71
2022/04/13 09:35:36;;;;;;;5.53;3.97;;;21.20;59.80;;;;;;5104977;28;20525;-71
2022/04/13 09:38:04;;;;;;;4.73;4.20;;;21.00;59.60;;;;;;5105017;28;20455;-72
2022/04/13 09:40:36;;;;;;;3.77;3.00;;;20.80;59.30;;;;;;5107928;28;20463;-72
2022/04/13 09:43:08;;;;;;;3.57;3.10;;;20.60;59.60;;;;;;5106563;28;20464;-72
2022/04/13 09:45:57;;;;;;;4.50;3.40;;;20.50;59.20;;;;;;5101029;28;20490;-72
2022/04/13 09:48:26;;;;;;;3.60;3.20;;;20.40;59.30;;;;;;5107508;28;20426;-72
2022/04/13 09:50:56;;;;;;;3.50;3.20;;;20.20;59.80;;;;;;5107362;28;21063;-72
2022/04/13 09:53:22;;;;;;;4.67;3.40;;;20.00;60.20;;;;;;5103057;28;20512;-70
2022/04/13 09:55:53;;;;;;;3.47;3.10;;;19.90;60.00;;;;;;5091470;28;20494;-71
2022/04/13 09:58:22;;;;;;;4.50;3.50;;;19.90;59.60;;;;;;5114441;28;20425;-71
2022/04/13 10:01:00;;;;;;;3.60;3.30;;;19.80;60.20;;;;;;5108069;27;20467;-71
2022/04/13 10:03:27;;;;;;;4.13;2.87;;;19.80;60.50;;;;;;5098502;28;20681;-71
2022/04/13 10:05:57;;;;;;;3.93;3.20;;;19.80;60.10;;;;;;5108707;28;21040;-71
2022/04/13 10:08:30;;;;;;;4.17;3.77;;;19.80;59.20;;;;;;5098101;28;20431;-71
2022/04/13 10:10:59;;;;;;;3.30;3.10;;;19.80;60.20;;;;;;5103721;27;20561;-71
2022/04/13 10:13:38;;;;;;;3.40;3.10;;;19.80;61.10;;;;;;5109024;27;20806;-72
2022/04/13 10:16:09;;;;;;;8.73;2.93;;;19.80;61.00;;;;;;5098272;27;20841;-72
2022/04/13 10:19:03;;;;;;;3.90;2.90;;;19.80;61.00;;;;;;5108049;27;20510;-72
2022/04/13 10:21:49;;;;;;;3.57;2.87;;;19.90;61.20;;;;;;5100394;27;20429;-71
2022/04/13 10:24:40;;;;;;;6.10;3.27;;;19.90;60.50;;;;;;5123804;27;20467;-71
2022/04/13 10:27:35;;;;;;;4.20;3.73;;;19.90;60.00;;;;;;5113473;27;20452;-72
2022/04/13 10:30:18;;;;;;;5.13;4.10;;;19.90;59.80;;;;;;5110717;27;20997;-72
2022/04/13 10:33:02;;;;;;;4.63;2.97;;;19.80;59.90;;;;;;5114136;27;20444;-71
2022/04/13 10:35:34;;;;;;;3.13;2.87;;;19.90;61.30;;;;;;5108899;27;20916;-71
2022/04/13 10:38:01;;;;;;;3.80;3.50;;;19.90;63.00;;;;;;5115999;27;20475;-71
2022/04/13 10:40:31;;;;;;;5.20;3.40;;;19.90;64.00;;;;;;5115705;27;21039;-71
2022/04/13 10:43:02;;;;;;;3.60;3.10;;;19.90;59.60;;;;;;5116618;27;20425;-71
2022/04/13 10:45:33;;;;;;;4.53;3.10;;;19.90;61.00;;;;;;5114426;27;20950;-72
2022/04/13 10:48:05;;;;;;;3.07;2.87;;;20.00;60.50;;;;;;5107434;27;20842;-71
2022/04/13 10:50:46;;;;;;;5.07;3.03;;;20.10;61.20;;;;;;5100965;27;20456;-72
2022/04/13 10:53:27;;;;;;;4.47;3.40;;;20.10;60.60;;;;;;5104348;27;20572;-71
2022/04/13 10:56:03;;;;;;;3.90;3.47;;;20.10;59.70;;;;;;5110405;27;20470;-72
2022/04/13 10:58:51;;;;;;;3.53;3.23;;;20.10;59.90;;;;;;5104415;27;20749;-72
2022/04/13 11:01:20;;;;;;;2.80;2.50;;;20.10;60.90;;;;;;5112619;27;20473;-72
2022/04/13 11:03:48;;;;;;;4.77;3.53;;;20.10;62.50;;;;;;5106116;27;20449;-71
2022/04/13 11:06:14;;;;;;;4.33;3.70;;;20.20;60.30;;;;;;5105684;27;20954;-72
2022/04/13 11:08:57;;;;;;;3.60;3.03;;;20.10;60.30;;;;;;5101802;28;20419;-72
2022/04/13 11:11:41;;;;;;;4.37;3.90;;;20.10;60.10;;;;;;5104604;27;20442;-71
2022/04/13 11:14:27;;;;;;;4.60;3.63;;;20.10;60.00;;;;;;5105648;27;20671;-72
2022/04/13 11:17:19;;;;;;;4.00;3.40;;;20.20;60.00;;;;;;5125135;27;20459;-72
2022/04/13 11:19:48;;;;;;;3.87;3.13;;;20.20;61.70;;;;;;5099285;27;20551;-72
2022/04/13 11:22:20;;;;;;;4.00;3.67;;;20.20;65.20;;;;;;5098800;28;20767;-71
2022/04/13 11:24:46;;;;;;;3.60;3.30;;;20.20;65.00;;;;;;5103034;27;20452;-71
2022/04/13 11:27:13;;;;;;;3.50;3.20;;;20.30;62.30;;;;;;5102375;27;20435;-71
2022/04/13 11:29:44;;;;;;;4.43;3.83;;;20.30;59.80;;;;;;5124189;27;20455;-71
2022/04/13 11:32:39;;;;;;;3.60;3.30;;;20.40;59.80;;;;;;5100753;27;20489;-71
2022/04/13 11:35:08;;;;;;;5.30;3.53;;;20.50;59.70;;;;;;5090866;28;20498;-71
2022/04/13 11:37:36;;;;;;;7.33;3.93;;;20.50;59.70;;;;;;5099814;28;20458;-72
2022/04/13 11:40:12;;;;;;;3.50;3.20;;;20.50;61.90;;;;;;5080129;28;20827;-72
2022/04/13 11:42:43;;;;;;;4.03;3.37;;;20.50;60.10;;;;;;5088174;28;20537;-72
2022/04/13 11:45:19;;;;;;;3.60;3.30;;;20.60;60.60;;;;;;5101033;28;20462;-71
2022/04/13 11:48:14;;;;;;;5.00;3.60;;;20.60;62.50;;;;;;5086578;28;20765;-71
2022/04/13 11:51:03;;;;;;;4.80;3.47;;;20.50;62.30;;;;;;5082963;28;20798;-71
2022/04/13 11:53:51;;;;;;;4.53;4.13;;;20.60;62.20;;;;;;5083891;28;20414;-72
2022/04/13 11:56:36;;;;;;;4.67;3.87;;;20.60;60.80;;;;;;5084935;28;20502;-72
2022/04/13 11:59:05;;;;;;;4.53;3.00;;;20.60;59.90;;;;;;5082572;28;20435;-72
2022/04/13 12:01:35;;;;;;;3.93;3.50;;;20.70;58.90;;;;;;5106228;28;20830;-71
2022/04/13 12:04:05;;;;;;;3.90;3.30;;;20.70;59.30;;;;;;5103995;28;20416;-72
2022/04/13 12:06:31;;;;;;;3.87;3.47;;;20.70;59.80;;;;;;5085460;28;20442;-71
2022/04/13 12:09:02;;;;;;;3.70;3.20;;;20.80;62.00;;;;;;5087606;28;20533;-71
2022/04/13 12:11:44;;;;;;;2.97;2.77;;;20.80;60.50;;;;;;5094739;28;20978;-72
2022/04/13 12:14:13;;;;;;;4.30;3.70;;;20.90;58.40;;;;;;5087791;28;20451;-71
2022/04/13 12:16:41;;;;;;;5.03;3.47;;;20.90;62.50;;;;;;5079056;28;20473;-72
2022/04/13 12:19:09;;;;;;;4.57;3.50;;;20.90;63.20;;;;;;5088157;28;20502;-73
2022/04/13 12:21:41;;;;;;;3.10;2.80;;;20.90;60.10;;;;;;5087625;28;20428;-72
2022/04/13 12:24:12;;;;;;;4.33;3.80;;;20.90;58.50;;;;;;5084580;27;20478;-72
2022/04/13 12:26:42;;;;;;;3.57;3.27;;;20.90;62.70;;;;;;5084609;28;21077;-72
2022/04/13 12:29:20;;;;;;;4.13;3.73;;;20.90;60.80;;;;;;5096455;28;20452;-72
2022/04/13 12:31:53;;;;;;;4.57;4.07;;;21.00;60.10;;;;;;5082877;28;20421;-72
2022/04/13 12:34:23;;;;;;;4.40;3.40;;;21.00;59.40;;;;;;5086207;27;20460;-72
2022/04/13 12:36:56;;;;;;;4.40;3.60;;;21.00;61.70;;;;;;5110096;27;20462;-72
2022/04/13 12:39:30;;;;;;;4.73;4.23;;;21.00;60.10;;;;;;5126988;27;21046;-72
2022/04/13 12:41:58;;;;;;;3.23;3.00;;;21.00;62.40;;;;;;5126965;27;20866;-72
2022/04/13 12:44:25;;;;;;;6.67;4.03;;;21.00;59.90;;;;;;5131396;27;20577;-72
2022/04/13 12:47:07;;;;;;;5.70;3.77;;;21.00;60.80;;;;;;5105994;27;20426;-72
2022/04/13 12:49:42;;;;;;;4.40;3.20;;;21.00;63.30;;;;;;5110219;27;20454;-72
2022/04/13 12:52:12;;;;;;;5.00;3.67;;;20.90;64.80;;;;;;5102319;27;20491;-72
2022/04/13 12:54:40;;;;;;;4.97;4.50;;;20.90;65.50;;;;;;5102884;28;20435;-74
2022/04/13 12:57:08;;;;;;;3.87;3.47;;;20.90;61.10;;;;;;5126023;27;20474;-73
2022/04/13 12:59:41;;;;;;;3.83;3.43;;;20.90;63.80;;;;;;5098427;28;20545;-70
2022/04/13 13:02:31;;;;;;;4.53;3.77;;;20.90;59.40;;;;;;5110539;28;20422;-72
2022/04/13 13:05:04;;;;;;;6.23;4.80;;;20.90;62.30;;;;;;5102622;28;20445;-71
2022/04/13 13:07:32;;;;;;;7.00;4.50;;;20.90;64.60;;;;;;5101278;28;20671;-71